createdAt,value
2022-11-25T00:00:54.779Z,12.90
2022-11-25T00:01:54.998Z,12.40
2022-11-25T00:02:55.174Z,12.50
2022-11-25T00:03:55.309Z,13.60
2022-11-25T00:04:55.471Z,13.70
2022-11-25T00:05:55.659Z,14.10
2022-11-25T00:06:55.815Z,15.80
2022-11-25T00:07:56.057Z,12.70
2022-11-25T00:08:56.153Z,12.50
2022-11-25T00:09:56.321Z,14.70
2022-11-25T00:10:56.499Z,12.20
2022-11-25T00:11:56.663Z,12.40
2022-11-25T00:12:56.844Z,13.30
2022-11-25T00:13:57.015Z,13.50
2022-11-25T00:14:57.198Z,14.20
2022-11-25T00:15:57.370Z,13.90
2022-11-25T00:16:57.654Z,12.30
2022-11-25T00:17:57.813Z,12.50
2022-11-25T00:18:57.918Z,15.10
2022-11-25T00:19:58.082Z,14.80
2022-11-25T00:20:58.252Z,14.10
2022-11-25T00:21:58.432Z,12.70
2022-11-25T00:22:58.612Z,11.70
2022-11-25T00:23:58.785Z,13.90
2022-11-25T00:24:58.952Z,13.60
2022-11-25T00:25:59.114Z,11.50
2022-11-25T00:26:59.281Z,12.20
2022-11-25T00:27:59.473Z,13.10
2022-11-25T00:28:59.601Z,15.30
2022-11-25T00:29:59.781Z,12.90
2022-11-25T00:30:59.942Z,12.80
2022-11-25T00:32:00.190Z,12.10
2022-11-25T00:33:00.300Z,11.70
2022-11-25T00:34:00.453Z,12.60
2022-11-25T00:35:00.620Z,11.50
2022-11-25T00:36:00.781Z,12.40
2022-11-25T00:37:00.949Z,11.30
2022-11-25T00:38:01.121Z,13.70
2022-11-25T00:39:01.301Z,12.50
2022-11-25T00:40:01.471Z,13.40
2022-11-25T00:41:01.631Z,12.70
2022-11-25T00:42:01.806Z,17.10
2022-11-25T00:43:01.991Z,13.90
2022-11-25T00:44:02.164Z,11.60
2022-11-25T00:45:02.329Z,13.40
2022-11-25T00:46:02.516Z,15.10
2022-11-25T00:47:02.670Z,13.40
2022-11-25T00:48:02.852Z,11.90
2022-11-25T00:49:03.019Z,11.80
2022-11-25T00:50:03.189Z,14.30
2022-11-25T00:51:03.359Z,13.50
2022-11-25T00:52:03.542Z,15.60
2022-11-25T00:53:03.728Z,12.60
2022-11-25T00:54:03.889Z,14.00
2022-11-25T00:55:04.049Z,14.60
2022-11-25T00:56:04.237Z,14.70
2022-11-25T00:57:04.420Z,16.00
2022-11-25T00:58:04.599Z,13.80
2022-11-25T00:59:04.743Z,14.90
2022-11-25T01:00:04.928Z,14.00
2022-11-25T01:01:05.178Z,18.60
2022-11-25T01:02:05.371Z,14.10
2022-11-25T01:03:05.447Z,13.70
2022-11-25T01:04:05.631Z,16.10
2022-11-25T01:05:05.769Z,12.80
2022-11-25T01:06:05.938Z,13.10
2022-11-25T01:07:06.097Z,14.00
2022-11-25T01:08:06.447Z,16.80
2022-11-25T01:09:06.438Z,13.70
2022-11-25T01:10:06.615Z,13.70
2022-11-25T01:11:06.777Z,13.70
2022-11-25T01:12:06.950Z,14.30
2022-11-25T01:13:07.118Z,11.70
2022-11-25T01:14:07.287Z,13.90
2022-11-25T01:15:07.457Z,14.40
2022-11-25T01:16:07.685Z,11.50
2022-11-25T01:17:07.828Z,12.80
2022-11-25T01:18:07.989Z,13.10
2022-11-25T01:19:08.116Z,15.30
2022-11-25T01:20:08.286Z,15.80
2022-11-25T01:21:08.486Z,15.30
2022-11-25T01:22:08.653Z,14.10
2022-11-25T01:23:08.819Z,13.20
2022-11-25T01:24:08.987Z,15.20
2022-11-25T01:25:09.156Z,13.70
2022-11-25T01:26:09.325Z,15.20
2022-11-25T01:27:09.486Z,17.80
2022-11-25T01:28:09.687Z,13.40
2022-11-25T01:29:09.825Z,15.30
2022-11-25T01:30:10.007Z,18.10
2022-11-25T01:31:10.247Z,17.10
2022-11-25T01:32:10.434Z,16.60
2022-11-25T01:33:10.554Z,15.20
2022-11-25T01:34:10.704Z,16.60
2022-11-25T01:35:10.885Z,15.20
2022-11-25T01:36:11.073Z,19.20
2022-11-25T01:37:11.254Z,17.30
2022-11-25T01:38:11.452Z,16.30
2022-11-25T01:39:11.615Z,15.70
2022-11-25T01:40:11.763Z,14.50
2022-11-25T01:41:11.946Z,14.70
2022-11-25T01:42:12.104Z,15.80
2022-11-25T01:43:12.291Z,15.90
2022-11-25T01:44:12.464Z,14.80
2022-11-25T01:45:12.624Z,16.20
2022-11-25T01:46:12.838Z,15.70
2022-11-25T01:47:12.997Z,14.60
2022-11-25T01:48:13.180Z,15.70
2022-11-25T01:49:13.343Z,14.10
2022-11-25T01:50:13.525Z,16.20
2022-11-25T01:51:13.702Z,15.80
2022-11-25T01:52:13.874Z,14.00
2022-11-25T01:53:14.072Z,16.80
2022-11-25T01:54:14.222Z,13.80
2022-11-25T01:55:14.382Z,14.50
2022-11-25T01:56:14.543Z,16.80
2022-11-25T01:57:14.717Z,13.60
2022-11-25T01:58:14.882Z,14.00
2022-11-25T01:59:15.064Z,15.50
2022-11-25T02:00:15.255Z,14.70
2022-11-25T02:01:15.486Z,21.90
2022-11-25T02:02:15.697Z,16.10
2022-11-25T02:03:15.741Z,13.60
2022-11-25T02:04:15.911Z,19.10
2022-11-25T02:05:16.091Z,16.80
2022-11-25T02:06:16.271Z,18.80
2022-11-25T02:07:16.504Z,16.30
2022-11-25T02:08:16.672Z,19.40
2022-11-25T02:09:16.810Z,18.80
2022-11-25T02:10:17.003Z,14.50
2022-11-25T02:11:17.181Z,16.90
2022-11-25T02:12:17.361Z,19.20
2022-11-25T02:13:17.548Z,17.50
2022-11-25T02:14:17.737Z,19.00
2022-11-25T02:15:17.906Z,18.30
2022-11-25T02:16:18.092Z,18.20
2022-11-25T02:17:18.263Z,24.80
2022-11-25T02:18:18.440Z,22.10
2022-11-25T02:19:18.636Z,19.80
2022-11-25T02:20:18.779Z,24.10
2022-11-25T02:21:18.970Z,18.20
2022-11-25T02:22:19.139Z,20.10
2022-11-25T02:23:19.348Z,19.50
2022-11-25T02:24:19.496Z,18.50
2022-11-25T02:25:19.679Z,18.40
2022-11-25T02:26:19.857Z,15.30
2022-11-25T02:27:20.042Z,17.40
2022-11-25T02:28:20.218Z,17.30
2022-11-25T02:29:20.369Z,16.80
2022-11-25T02:30:20.547Z,15.90
2022-11-25T02:31:20.780Z,18.60
2022-11-25T02:32:20.919Z,15.50
2022-11-25T02:33:21.116Z,19.00
2022-11-25T02:34:21.259Z,17.20
2022-11-25T02:35:21.438Z,14.90
2022-11-25T02:36:21.627Z,16.30
2022-11-25T02:37:21.820Z,19.30
2022-11-25T02:38:21.999Z,16.20
2022-11-25T02:39:22.183Z,17.10
2022-11-25T02:40:22.327Z,22.30
2022-11-25T02:41:22.517Z,17.30
2022-11-25T02:42:22.668Z,20.80
2022-11-25T02:43:22.872Z,17.30
2022-11-25T02:44:23.019Z,16.20
2022-11-25T02:45:23.202Z,20.50
2022-11-25T02:46:23.407Z,19.70
2022-11-25T02:47:23.545Z,17.70
2022-11-25T02:48:34.721Z,15.70
2022-11-25T02:49:24.897Z,16.70
2022-11-25T02:50:24.076Z,19.00
2022-11-25T02:51:24.257Z,18.60
2022-11-25T02:52:24.438Z,18.80
2022-11-25T02:53:24.635Z,16.40
2022-11-25T02:54:24.775Z,18.10
2022-11-25T02:55:24.958Z,16.80
2022-11-25T02:56:25.133Z,16.90
2022-11-25T02:57:25.326Z,19.20
2022-11-25T02:58:25.526Z,14.90
2022-11-25T02:59:25.675Z,14.70
2022-11-25T03:00:25.858Z,17.20
2022-11-25T03:01:26.101Z,15.70
2022-11-25T03:02:26.223Z,17.90
2022-11-25T03:03:26.375Z,20.10
2022-11-25T03:04:26.558Z,18.80
2022-11-25T03:05:26.737Z,17.20
2022-11-25T03:06:26.916Z,16.60
2022-11-25T03:07:27.156Z,15.00
2022-11-25T03:08:27.376Z,16.50
2022-11-25T03:09:27.444Z,14.60
2022-11-25T03:10:27.608Z,15.70
2022-11-25T03:11:27.785Z,15.50
2022-11-25T03:12:27.926Z,18.30
2022-11-25T03:13:28.113Z,14.70
2022-11-25T03:14:28.302Z,19.60
2022-11-25T03:15:28.475Z,15.70
2022-11-25T03:16:28.706Z,17.10
2022-11-25T03:17:28.829Z,15.20
2022-11-25T03:18:29.003Z,19.10
2022-11-25T03:19:29.197Z,18.80
2022-11-25T03:20:29.376Z,18.60
2022-11-25T03:21:29.552Z,17.00
2022-11-25T03:22:29.784Z,20.60
2022-11-25T03:23:29.914Z,15.70
2022-11-25T03:24:30.055Z,18.10
2022-11-25T03:25:30.254Z,21.10
2022-11-25T03:26:30.480Z,18.80
2022-11-25T03:27:30.605Z,17.80
2022-11-25T03:28:30.752Z,19.00
2022-11-25T03:29:30.894Z,17.50
2022-11-25T03:30:31.070Z,18.70
2022-11-25T03:31:31.276Z,14.10
2022-11-25T03:32:31.447Z,16.40
2022-11-25T03:33:31.613Z,13.90
2022-11-25T03:34:31.784Z,16.80
2022-11-25T03:35:31.964Z,15.90
2022-11-25T03:36:32.170Z,15.40
2022-11-25T03:37:32.332Z,12.90
2022-11-25T03:38:32.513Z,16.30
2022-11-25T03:39:32.700Z,14.40
2022-11-25T03:40:32.881Z,15.90
2022-11-25T03:41:33.062Z,17.10
2022-11-25T03:42:33.235Z,17.40
2022-11-25T03:43:33.444Z,17.40
2022-11-25T03:44:33.831Z,17.20
2022-11-25T03:45:33.835Z,18.90
2022-11-25T03:46:33.952Z,16.10
2022-11-25T03:47:34.131Z,15.30
2022-11-25T03:48:34.301Z,12.90
2022-11-25T03:49:34.488Z,17.50
2022-11-25T03:50:34.663Z,13.60
2022-11-25T03:51:34.832Z,16.10
2022-11-25T03:52:35.021Z,13.70
2022-11-25T03:53:35.220Z,14.50
2022-11-25T03:54:35.544Z,15.40
2022-11-25T03:55:35.550Z,18.10
2022-11-25T03:56:35.710Z,15.70
2022-11-25T03:57:35.900Z,18.70
2022-11-25T03:58:36.111Z,14.50
2022-11-25T03:59:36.258Z,20.10
2022-11-25T04:00:36.433Z,15.80
2022-11-25T04:01:40.112Z,19.40
2022-11-25T04:02:37.794Z,16.20
2022-11-25T04:03:36.963Z,18.00
2022-11-25T04:04:37.421Z,18.60
2022-11-25T04:05:37.279Z,15.50
2022-11-25T04:06:37.460Z,17.10
2022-11-25T04:07:37.677Z,19.70
2022-11-25T04:08:37.991Z,18.70
2022-11-25T04:09:37.992Z,15.40
2022-11-25T04:10:38.169Z,16.20
2022-11-25T04:11:38.364Z,15.70
2022-11-25T04:12:38.529Z,15.80
2022-11-25T04:13:38.739Z,15.70
2022-11-25T04:14:38.889Z,17.60
2022-11-25T04:15:39.069Z,16.80
2022-11-25T04:16:39.296Z,16.30
2022-11-25T04:17:39.431Z,17.30
2022-11-25T04:18:39.618Z,17.20
2022-11-25T04:19:39.768Z,16.10
2022-11-25T04:20:39.948Z,14.30
2022-11-25T04:21:40.130Z,14.00
2022-11-25T04:22:40.309Z,15.30
2022-11-25T04:23:40.498Z,14.10
2022-11-25T04:24:40.668Z,16.40
2022-11-25T04:25:40.882Z,17.60
2022-11-25T04:26:41.025Z,15.10
2022-11-25T04:27:41.198Z,14.70
2022-11-25T04:28:41.397Z,15.50
2022-11-25T04:29:41.539Z,15.30
2022-11-25T04:30:41.750Z,17.20
2022-11-25T04:31:41.898Z,15.90
2022-11-25T04:32:42.074Z,15.10
2022-11-25T04:33:42.288Z,14.20
2022-11-25T04:34:42.432Z,14.30
2022-11-25T04:35:42.587Z,16.50
2022-11-25T04:36:42.747Z,15.80
2022-11-25T04:37:42.926Z,13.90
2022-11-25T04:38:43.098Z,12.90
2022-11-25T04:39:43.269Z,15.20
2022-11-25T04:40:43.431Z,13.70
2022-11-25T04:41:43.596Z,12.30
2022-11-25T04:42:43.775Z,16.30
2022-11-25T04:43:43.936Z,16.90
2022-11-25T04:44:52.095Z,11.80
2022-11-25T04:46:12.460Z,14.20
2022-11-25T04:46:45.505Z,15.00
2022-11-25T04:47:44.636Z,14.40
2022-11-25T04:48:44.834Z,13.00
2022-11-25T04:49:44.994Z,14.70
2022-11-25T04:50:45.166Z,15.80
2022-11-25T04:51:45.337Z,13.80
2022-11-25T04:52:45.527Z,13.90
2022-11-25T04:53:45.701Z,12.40
2022-11-25T04:54:45.886Z,15.00
2022-11-25T04:55:46.053Z,12.30
2022-11-25T04:56:46.228Z,13.90
2022-11-25T04:57:46.384Z,13.00
2022-11-25T04:58:46.583Z,12.40
2022-11-25T04:59:46.720Z,14.30
2022-11-25T05:00:46.897Z,12.40
2022-11-25T05:01:47.123Z,12.60
2022-11-25T05:02:47.309Z,13.10
2022-11-25T05:03:51.758Z,13.10
2022-11-25T05:04:48.594Z,12.80
2022-11-25T05:05:47.766Z,11.80
2022-11-25T05:06:47.935Z,15.40
2022-11-25T05:07:48.165Z,14.30
2022-11-25T05:08:48.265Z,14.40
2022-11-25T05:09:48.443Z,11.20
2022-11-25T05:10:48.604Z,11.80
2022-11-25T05:11:48.783Z,13.60
2022-11-25T05:12:48.964Z,13.00
2022-11-25T05:13:49.152Z,11.30
2022-11-25T05:14:49.324Z,13.70
2022-11-25T05:15:49.491Z,15.50
2022-11-25T05:16:49.698Z,13.00
2022-11-25T05:17:49.823Z,12.60
2022-11-25T05:18:50.043Z,12.30
2022-11-25T05:19:50.143Z,15.60
2022-11-25T05:20:50.333Z,14.00
2022-11-25T05:21:50.504Z,14.30
2022-11-25T05:22:50.653Z,15.00
2022-11-25T05:23:55.671Z,12.10
2022-11-25T05:24:51.985Z,12.20
2022-11-25T05:25:51.173Z,16.90
2022-11-25T05:26:52.306Z,14.30
2022-11-25T05:27:51.639Z,14.90
2022-11-25T05:28:51.702Z,14.60
2022-11-25T05:29:55.899Z,15.90
2022-11-25T05:30:52.080Z,12.70
2022-11-25T05:31:52.264Z,15.00
2022-11-25T05:32:52.419Z,15.30
2022-11-25T05:33:52.610Z,18.50
2022-11-25T05:34:52.773Z,12.70
2022-11-25T05:35:52.965Z,14.40
2022-11-25T05:36:53.122Z,14.90
2022-11-25T05:37:53.293Z,18.30
2022-11-25T05:38:53.481Z,15.60
2022-11-25T05:39:53.662Z,16.80
2022-11-25T05:40:53.832Z,13.10
2022-11-25T05:41:54.001Z,16.40
2022-11-25T05:42:54.169Z,15.70
2022-11-25T05:43:54.371Z,14.80
2022-11-25T05:44:54.510Z,14.00
2022-11-25T05:45:54.705Z,15.70
2022-11-25T05:46:54.843Z,19.30
2022-11-25T05:47:55.021Z,15.00
2022-11-25T05:48:55.251Z,18.50
2022-11-25T05:49:55.367Z,18.40
2022-11-25T05:50:55.541Z,20.00
2022-11-25T05:51:55.741Z,16.20
2022-11-25T05:52:55.869Z,17.40
2022-11-25T05:53:56.079Z,16.20
2022-11-25T05:54:57.560Z,20.10
2022-11-25T05:55:56.399Z,15.60
2022-11-25T05:56:56.579Z,15.20
2022-11-25T05:57:56.750Z,13.90
2022-11-25T05:58:56.930Z,16.30
2022-11-25T05:59:57.109Z,16.60
2022-11-25T06:00:57.309Z,19.30
2022-11-25T06:01:57.514Z,16.20
2022-11-25T06:02:57.751Z,13.70
2022-11-25T06:03:57.849Z,17.50
2022-11-25T06:04:58.019Z,17.50
2022-11-25T06:05:58.207Z,14.40
2022-11-25T06:06:58.380Z,11.90
2022-11-25T06:07:58.589Z,19.00
2022-11-25T06:08:58.738Z,14.60
2022-11-25T06:10:03.109Z,23.40
2022-11-25T06:10:59.077Z,33.90
2022-11-25T06:11:59.258Z,18.60
2022-11-25T06:12:59.449Z,18.60
2022-11-25T06:13:59.616Z,18.80
2022-11-25T06:14:59.769Z,26.50
2022-11-25T06:16:06.295Z,17.00
2022-11-25T06:17:01.088Z,18.70
2022-11-25T06:18:00.259Z,21.70
2022-11-25T06:19:00.448Z,23.00
2022-11-25T06:20:00.627Z,36.10
2022-11-25T06:21:00.800Z,43.90
2022-11-25T06:22:00.988Z,39.80
2022-11-25T06:23:01.136Z,27.30
2022-11-25T06:24:01.341Z,80.20
2022-11-25T06:25:03.886Z,51.80
2022-11-25T06:26:01.656Z,44.50
2022-11-25T06:27:01.827Z,29.60
2022-11-25T06:28:12.697Z,21.70
2022-11-25T06:29:03.184Z,93.10
2022-11-25T06:30:02.327Z,36.30
2022-11-25T06:31:02.560Z,33.70
2022-11-25T06:32:02.675Z,25.50
2022-11-25T06:33:02.883Z,45.30
2022-11-25T06:34:03.048Z,25.20
2022-11-25T06:35:03.215Z,29.20
2022-11-25T06:36:03.386Z,26.10
2022-11-25T06:37:03.555Z,111.30
2022-11-25T06:38:03.734Z,50.80
2022-11-25T06:39:03.925Z,96.30
2022-11-25T06:40:04.063Z,78.30
2022-11-25T06:41:05.205Z,33.10
2022-11-25T06:42:04.413Z,69.20
2022-11-25T06:43:04.615Z,60.50
2022-11-25T06:44:04.805Z,61.40
2022-11-25T06:45:04.925Z,76.50
2022-11-25T06:46:05.165Z,52.80
2022-11-25T06:47:05.263Z,87.00
2022-11-25T06:48:05.421Z,57.90
2022-11-25T06:49:05.730Z,65.40
2022-11-25T06:50:05.797Z,71.60
2022-11-25T06:51:05.960Z,54.60
2022-11-25T06:52:06.114Z,64.40
2022-11-25T06:53:06.315Z,136.50
2022-11-25T06:54:06.481Z,79.90
2022-11-25T06:55:06.630Z,119.20
2022-11-25T06:56:06.811Z,87.60
2022-11-25T06:57:06.978Z,55.40
2022-11-25T06:58:28.161Z,68.60
2022-11-25T06:59:08.342Z,73.30
2022-11-25T07:00:07.474Z,52.00
2022-11-25T07:01:07.822Z,161.40
2022-11-25T07:02:07.963Z,67.20
2022-11-25T07:03:08.114Z,105.50
2022-11-25T07:04:08.223Z,99.60
2022-11-25T07:05:08.379Z,51.70
2022-11-25T07:06:08.545Z,77.00
2022-11-25T07:07:08.701Z,218.00
2022-11-25T07:08:08.883Z,178.00
2022-11-25T07:09:09.083Z,303.30
2022-11-25T07:10:09.232Z,222.20
2022-11-25T07:11:09.402Z,189.30
2022-11-25T07:12:09.585Z,85.00
2022-11-25T07:13:09.762Z,110.20
2022-11-25T07:14:09.944Z,55.00
2022-11-25T07:15:10.195Z,76.60
2022-11-25T07:16:10.430Z,38.30
2022-11-25T07:17:12.317Z,46.40
2022-11-25T07:18:10.641Z,60.60
2022-11-25T07:19:10.832Z,68.50
2022-11-25T07:20:10.990Z,73.40
2022-11-25T07:21:11.152Z,50.40
2022-11-25T07:22:11.362Z,52.50
2022-11-25T07:23:11.491Z,64.10
2022-11-25T07:24:11.681Z,37.40
2022-11-25T07:25:11.822Z,190.90
2022-11-25T07:26:11.982Z,191.90
2022-11-25T07:27:12.166Z,61.20
2022-11-25T07:28:12.353Z,37.20
2022-11-25T07:31:32.844Z,54.90
2022-11-25T07:32:13.969Z,175.20
2022-11-25T07:33:13.175Z,36.90
2022-11-25T07:34:13.341Z,38.00
2022-11-25T07:35:13.488Z,43.30
2022-11-25T07:36:13.679Z,31.60
2022-11-25T07:37:13.851Z,90.70
2022-11-25T07:38:14.009Z,31.90
2022-11-25T07:39:14.218Z,29.50
2022-11-25T07:40:14.361Z,126.90
2022-11-25T07:41:14.556Z,41.70
2022-11-25T07:42:14.701Z,230.60
2022-11-25T07:43:14.892Z,145.50
2022-11-25T07:44:15.067Z,149.30
2022-11-25T07:45:15.256Z,143.00
2022-11-25T07:46:16.380Z,277.20
2022-11-25T07:47:15.596Z,204.50
2022-11-25T07:48:15.768Z,97.90
2022-11-25T07:49:15.938Z,58.80
2022-11-25T07:50:16.136Z,37.20
2022-11-25T07:51:16.278Z,66.50
2022-11-25T07:52:16.449Z,33.70
2022-11-25T07:53:16.622Z,25.20
2022-11-25T07:54:16.800Z,76.30
2022-11-25T07:55:16.969Z,131.50
2022-11-25T07:56:17.117Z,32.90
2022-11-25T07:57:17.299Z,41.40
2022-11-25T07:58:17.499Z,26.30
2022-11-25T07:59:17.668Z,35.30
2022-11-25T08:00:17.818Z,41.30
2022-11-25T08:01:18.061Z,69.80
2022-11-25T08:02:18.208Z,41.40
2022-11-25T08:03:18.393Z,25.20
2022-11-25T08:04:20.827Z,89.60
2022-11-25T08:05:18.688Z,63.50
2022-11-25T08:06:18.871Z,32.20
2022-11-25T08:07:19.071Z,20.90
2022-11-25T08:08:19.187Z,53.80
2022-11-25T08:09:19.478Z,21.00
2022-11-25T08:10:19.537Z,24.00
2022-11-25T08:11:19.768Z,131.80
2022-11-25T08:12:19.886Z,29.40
2022-11-25T08:13:20.077Z,51.20
2022-11-25T08:14:20.276Z,27.30
2022-11-25T08:15:20.485Z,96.70
2022-11-25T08:16:20.681Z,124.70
2022-11-25T08:17:20.799Z,31.20
2022-11-25T08:18:20.946Z,54.30
2022-11-25T08:19:21.130Z,60.20
2022-11-25T08:20:21.277Z,36.80
2022-11-25T08:21:21.487Z,86.20
2022-11-25T08:22:21.652Z,26.20
2022-11-25T08:23:21.815Z,27.70
2022-11-25T08:24:21.996Z,34.70
2022-11-25T08:25:22.194Z,31.60
2022-11-25T08:26:22.415Z,38.70
2022-11-25T08:27:22.515Z,31.10
2022-11-25T08:28:22.676Z,16.50
2022-11-25T08:29:22.873Z,21.20
2022-11-25T08:30:23.035Z,109.00
2022-11-25T08:31:23.260Z,19.90
2022-11-25T08:32:23.394Z,41.70
2022-11-25T08:33:23.579Z,23.80
2022-11-25T08:34:23.734Z,42.00
2022-11-25T08:35:23.887Z,37.50
2022-11-25T08:36:24.034Z,67.40
2022-11-25T08:37:24.214Z,21.00
2022-11-25T08:38:24.382Z,64.00
2022-11-25T08:40:25.734Z,48.50
2022-11-25T08:41:24.903Z,29.20
2022-11-25T08:42:25.099Z,29.00
2022-11-25T08:43:29.383Z,55.30
2022-11-25T08:44:25.446Z,27.60
2022-11-25T08:45:25.624Z,18.80
2022-11-25T08:46:25.844Z,21.50
2022-11-25T08:47:25.942Z,21.90
2022-11-25T08:48:26.103Z,16.10
2022-11-25T08:49:26.283Z,18.50
2022-11-25T08:50:26.433Z,26.20
2022-11-25T08:51:26.633Z,11.30
2022-11-25T08:52:26.796Z,11.40
2022-11-25T08:53:26.962Z,21.50
2022-11-25T08:54:27.145Z,18.80
2022-11-25T08:55:27.324Z,17.90
2022-11-25T08:56:27.463Z,22.40
2022-11-25T08:57:27.750Z,22.60
2022-11-25T08:58:27.843Z,26.80
2022-11-25T08:59:28.006Z,16.80
2022-11-25T09:00:28.181Z,14.80
2022-11-25T09:01:28.480Z,45.30
2022-11-25T09:02:28.544Z,29.50
2022-11-25T09:03:28.750Z,42.10
2022-11-25T09:04:28.853Z,13.40
2022-11-25T09:05:29.011Z,21.20
2022-11-25T09:06:29.203Z,22.90
2022-11-25T09:07:31.035Z,60.30
2022-11-25T09:08:29.526Z,28.00
2022-11-25T09:09:29.832Z,29.60
2022-11-25T09:10:29.879Z,30.60
2022-11-25T09:11:30.059Z,14.00
2022-11-25T09:12:30.212Z,16.40
2022-11-25T09:13:30.451Z,14.40
2022-11-25T09:14:30.532Z,15.70
2022-11-25T09:15:30.721Z,20.80
2022-11-25T09:16:30.889Z,14.10
2022-11-25T09:17:31.043Z,17.90
2022-11-25T09:18:31.201Z,14.60
2022-11-25T09:19:31.393Z,17.30
2022-11-25T09:20:31.558Z,14.10
2022-11-25T09:21:31.718Z,13.30
2022-11-25T09:22:31.905Z,14.40
2022-11-25T09:23:32.053Z,9.60
2022-11-25T09:24:32.231Z,18.60
2022-11-25T09:25:32.382Z,14.80
2022-11-25T09:26:32.554Z,21.90
2022-11-25T09:27:32.780Z,11.40
2022-11-25T09:28:32.890Z,19.80
2022-11-25T09:29:33.207Z,26.10
2022-11-25T09:30:33.273Z,22.00
2022-11-25T09:31:33.479Z,15.30
2022-11-25T09:32:33.659Z,18.80
2022-11-25T09:33:33.772Z,21.20
2022-11-25T09:34:34.216Z,14.40
2022-11-25T09:35:34.145Z,25.70
2022-11-25T09:36:34.278Z,10.90
2022-11-25T09:37:34.471Z,20.20
2022-11-25T09:38:37.728Z,22.30
2022-11-25T09:39:36.127Z,20.70
2022-11-25T09:40:34.998Z,15.40
2022-11-25T09:41:35.157Z,21.20
2022-11-25T09:42:35.321Z,13.60
2022-11-25T09:43:35.493Z,16.10
2022-11-25T09:44:35.660Z,14.50
2022-11-25T09:45:35.849Z,12.60
2022-11-25T09:46:36.029Z,12.50
2022-11-25T09:47:36.173Z,19.30
2022-11-25T09:48:36.349Z,13.30
2022-11-25T09:49:36.926Z,13.90
2022-11-25T09:50:36.669Z,16.20
2022-11-25T09:51:36.828Z,11.60
2022-11-25T09:52:37.024Z,10.10
2022-11-25T09:53:37.179Z,13.50
2022-11-25T09:54:37.362Z,17.40
2022-11-25T09:55:37.517Z,10.20
2022-11-25T09:56:37.684Z,10.10
2022-11-25T09:57:37.847Z,13.30
2022-11-25T09:58:38.020Z,8.90
2022-11-25T09:59:38.385Z,10.60
2022-11-25T10:00:38.355Z,11.70
2022-11-25T10:01:38.508Z,11.60
2022-11-25T10:02:38.805Z,11.40
2022-11-25T10:03:38.888Z,16.20
2022-11-25T10:04:39.018Z,11.10
2022-11-25T10:05:39.178Z,15.10
2022-11-25T10:06:39.380Z,19.20
2022-11-25T10:07:39.569Z,8.90
2022-11-25T10:08:39.698Z,7.90
2022-11-25T10:09:40.023Z,9.50
2022-11-25T10:10:40.077Z,9.20
2022-11-25T10:11:40.279Z,9.80
2022-11-25T10:12:40.454Z,10.80
2022-11-25T10:13:40.598Z,10.50
2022-11-25T10:14:40.800Z,12.40
2022-11-25T10:15:40.994Z,10.20
2022-11-25T10:16:41.165Z,12.50
2022-11-25T10:17:41.288Z,12.70
2022-11-25T10:18:41.472Z,12.90
2022-11-25T10:19:41.655Z,10.50
2022-11-25T10:20:41.787Z,11.90
2022-11-25T10:21:41.946Z,11.70
2022-11-25T10:22:42.107Z,11.20
2022-11-25T10:23:42.280Z,12.70
2022-11-25T10:24:43.009Z,10.70
2022-11-25T10:25:42.616Z,13.30
2022-11-25T10:26:42.786Z,9.70
2022-11-25T10:27:43.102Z,11.50
2022-11-25T10:28:43.207Z,9.10
2022-11-25T10:29:43.356Z,11.60
2022-11-25T10:30:43.479Z,11.20
2022-11-25T10:31:43.774Z,10.90
2022-11-25T10:32:43.816Z,9.20
2022-11-25T10:33:44.005Z,9.90
2022-11-25T10:34:44.187Z,13.20
2022-11-25T10:35:44.374Z,9.40
2022-11-25T10:36:44.571Z,10.70
2022-11-25T10:37:44.726Z,9.90
2022-11-25T10:38:44.876Z,10.90
2022-11-25T10:39:45.067Z,11.10
2022-11-25T10:40:45.214Z,12.50
2022-11-25T10:41:45.405Z,16.80
2022-11-25T10:42:45.654Z,12.30
2022-11-25T10:43:45.770Z,13.20
2022-11-25T10:44:45.915Z,13.50
2022-11-25T10:45:46.091Z,13.50
2022-11-25T10:47:12.484Z,16.30
2022-11-25T10:47:47.466Z,16.40
2022-11-25T10:48:46.583Z,14.10
2022-11-25T10:49:46.766Z,18.70
2022-11-25T10:50:46.935Z,11.70
2022-11-25T10:51:47.085Z,9.90
2022-11-25T10:52:47.269Z,14.20
2022-11-25T10:53:47.425Z,8.50
2022-11-25T10:54:47.636Z,12.50
2022-11-25T10:55:47.801Z,13.90
2022-11-25T10:56:47.956Z,8.90
2022-11-25T10:57:48.134Z,10.20
2022-11-25T10:58:48.345Z,9.30
2022-11-25T10:59:48.534Z,9.40
2022-11-25T11:00:48.685Z,9.30
2022-11-25T11:01:48.907Z,13.30
2022-11-25T11:02:49.131Z,10.70
2022-11-25T11:03:49.275Z,8.40
2022-11-25T11:04:49.434Z,9.50
2022-11-25T11:05:49.603Z,12.00
2022-11-25T11:06:49.756Z,6.40
2022-11-25T11:07:49.960Z,8.50
2022-11-25T11:08:50.116Z,10.40
2022-11-25T11:09:50.314Z,7.10
2022-11-25T11:10:55.882Z,8.20
2022-11-25T11:11:51.632Z,7.90
2022-11-25T11:12:50.783Z,6.00
2022-11-25T11:13:50.965Z,10.10
2022-11-25T11:14:51.165Z,8.10
2022-11-25T11:15:51.352Z,8.60
2022-11-25T11:16:51.496Z,9.00
2022-11-25T11:17:51.695Z,10.90
2022-11-25T11:18:51.894Z,10.00
2022-11-25T11:19:52.054Z,9.80
2022-11-25T11:20:52.205Z,8.60
2022-11-25T11:21:52.357Z,10.80
2022-11-25T11:22:52.581Z,10.40
2022-11-25T11:23:52.761Z,9.50
2022-11-25T11:24:53.014Z,8.80
2022-11-25T11:25:53.115Z,6.60
2022-11-25T11:26:53.263Z,9.30
2022-11-25T11:27:53.454Z,11.70
2022-11-25T11:28:53.645Z,12.10
2022-11-25T11:29:53.843Z,8.40
2022-11-25T11:30:54.024Z,8.20
2022-11-25T11:31:54.198Z,5.80
2022-11-25T11:32:54.343Z,9.30
2022-11-25T11:33:54.514Z,7.50
2022-11-25T11:34:54.728Z,6.70
2022-11-25T11:35:54.862Z,6.80
2022-11-25T11:36:55.050Z,6.80
2022-11-25T11:37:55.239Z,7.80
2022-11-25T11:38:55.455Z,16.80
2022-11-25T11:39:55.673Z,9.60
2022-11-25T11:40:55.753Z,24.50
2022-11-25T11:41:55.913Z,14.40
2022-11-25T11:42:56.097Z,14.70
2022-11-25T11:43:56.254Z,11.90
2022-11-25T11:44:56.442Z,9.60
2022-11-25T11:45:56.594Z,8.10
2022-11-25T11:46:56.803Z,7.70
2022-11-25T11:47:56.961Z,8.30
2022-11-25T11:48:57.112Z,12.90
2022-11-25T11:49:57.269Z,8.20
2022-11-25T11:50:57.469Z,8.90
2022-11-25T11:51:57.631Z,10.40
2022-11-25T11:52:57.832Z,9.70
2022-11-25T11:53:58.024Z,10.60
2022-11-25T11:54:58.226Z,9.40
2022-11-25T11:56:26.843Z,9.60
2022-11-25T11:56:59.557Z,7.60
2022-11-25T11:57:58.712Z,9.60
2022-11-25T11:58:58.883Z,13.50
2022-11-25T11:59:59.092Z,7.20
2022-11-25T12:00:59.252Z,10.00
2022-11-25T12:01:59.463Z,9.00
2022-11-25T12:02:59.633Z,20.70
2022-11-25T12:03:59.750Z,10.70
2022-11-25T12:04:59.934Z,10.60
2022-11-25T12:06:00.090Z,12.60
2022-11-25T12:07:00.272Z,8.90
2022-11-25T12:08:00.498Z,9.40
2022-11-25T12:09:00.580Z,7.60
2022-11-25T12:10:00.789Z,9.30
2022-11-25T12:11:00.951Z,9.20
2022-11-25T12:12:01.132Z,9.30
2022-11-25T12:13:01.321Z,9.70
2022-11-25T12:14:01.512Z,11.80
2022-11-25T12:15:01.691Z,9.10
2022-11-25T12:16:01.897Z,9.70
2022-11-25T12:17:02.042Z,13.40
2022-11-25T12:18:02.192Z,6.90
2022-11-25T12:19:02.374Z,10.80
2022-11-25T12:20:02.591Z,9.40
2022-11-25T12:21:02.744Z,10.30
2022-11-25T12:22:02.917Z,10.00
2022-11-25T12:23:03.050Z,9.20
2022-11-25T12:24:03.387Z,10.50
2022-11-25T12:25:03.430Z,9.50
2022-11-25T12:26:03.611Z,7.50
2022-11-25T12:27:03.752Z,12.50
2022-11-25T12:28:03.930Z,10.10
2022-11-25T12:29:04.093Z,14.70
2022-11-25T12:30:04.299Z,8.20
2022-11-25T12:31:05.351Z,11.10
2022-11-25T12:32:04.657Z,9.30
2022-11-25T12:33:04.808Z,8.90
2022-11-25T12:34:05.078Z,8.30
2022-11-25T12:35:05.131Z,9.40
2022-11-25T12:36:05.330Z,7.70
2022-11-25T12:37:08.351Z,5.90
2022-11-25T12:38:06.689Z,10.10
2022-11-25T12:39:05.857Z,12.50
2022-11-25T12:40:06.030Z,11.40
2022-11-25T12:41:06.221Z,7.90
2022-11-25T12:42:06.394Z,6.90
2022-11-25T12:43:06.544Z,9.10
2022-11-25T12:44:06.747Z,12.00
2022-11-25T12:45:06.889Z,8.50
2022-11-25T12:46:07.140Z,6.00
2022-11-25T12:47:07.190Z,11.40
2022-11-25T12:48:07.369Z,7.80
2022-11-25T12:49:07.518Z,9.60
2022-11-25T12:50:07.737Z,7.70
2022-11-25T12:51:07.865Z,7.20
2022-11-25T12:52:08.010Z,8.80
2022-11-25T12:53:08.176Z,12.00
2022-11-25T12:54:08.361Z,8.00
2022-11-25T12:55:08.517Z,6.90
2022-11-25T12:56:08.659Z,7.80
2022-11-25T12:57:08.820Z,8.50
2022-11-25T12:58:09.030Z,9.10
2022-11-25T12:59:09.174Z,8.20
2022-11-25T13:00:39.847Z,8.10
2022-11-25T13:01:10.581Z,8.60